Fishtrap, Kentucky
Current Conditions -  °F | °C
As of 8:55 AM on Thursday 27 Nov 2014 (Local Time) from KPBX Reporting Station
Light Snow Light Snow  
Wind Chill: 24°   Ceiling: 400
Heat Index: 31°   Visibility: 1.7mi
Dew Point: 30°   Wind: 7mph
Humidity: 95%   Direction: 290°WNW
Pressure: 30.14"   Gusts: NA
Location:  37.5004°N, 82.4242°W
Report Text: KPBX 271355Z AUTO 29006KT 1 3/4SM -SN OVC004 00/M01 A3014 RMK AO2 T10051012
Loading
Personal Weather Stations






























Interactive Weather Map New forecast layout! Learn more

10-Day Weather Forecast

Advertisements
Track Severe Weather on mobile